createdAt,value
2018-08-18T00:00:26.405Z,99263.44
2018-08-18T00:02:55.771Z,99261.92
2018-08-18T00:05:24.798Z,99262.61
2018-08-18T00:07:53.821Z,99264.92
2018-08-18T00:10:23.370Z,99265.25
2018-08-18T00:12:52.617Z,99276.06
2018-08-18T00:15:21.874Z,99268.70
2018-08-18T00:17:54.187Z,99277.32
2018-08-18T00:20:27.780Z,99279.88
2018-08-18T00:22:59.838Z,99280.77
2018-08-18T00:25:29.669Z,99278.69
2018-08-18T00:28:04.862Z,99279.02
2018-08-18T00:30:33.877Z,99286.28
2018-08-18T00:33:02.940Z,99285.22
2018-08-18T00:35:32.319Z,99284.20
2018-08-18T00:38:02.780Z,99285.34
2018-08-18T00:40:32.437Z,99280.95
2018-08-18T00:43:02.112Z,99284.39
2018-08-18T00:45:30.999Z,99285.88
2018-08-18T00:48:00.425Z,99285.15
2018-08-18T00:50:42.998Z,99289.41
2018-08-18T00:53:14.220Z,99285.94
2018-08-18T00:55:43.334Z,99294.09
2018-08-18T00:58:21.927Z,99301.33
2018-08-18T01:00:56.173Z,99303.36
2018-08-18T01:03:25.696Z,99305.66
2018-08-18T01:05:57.044Z,99304.11
2018-08-18T01:08:26.441Z,99307.55
2018-08-18T01:10:55.630Z,99307.66
2018-08-18T01:13:24.912Z,99309.15
2018-08-18T01:15:54.213Z,99299.91
2018-08-18T01:18:23.266Z,99304.12
2018-08-18T01:20:52.284Z,99302.29
2018-08-18T01:23:21.463Z,99301.58
2018-08-18T01:25:50.629Z,99301.09
2018-08-18T01:28:19.817Z,99306.16
2018-08-18T01:31:02.578Z,99311.19
2018-08-18T01:33:32.866Z,99306.58
2018-08-18T01:36:02.057Z,99308.06
2018-08-18T01:38:32.443Z,99310.90
2018-08-18T01:41:13.127Z,99317.34
2018-08-18T01:43:44.099Z,99312.14
2018-08-18T01:46:16.853Z,99311.11
2018-08-18T01:48:47.816Z,99314.51
2018-08-18T01:51:20.503Z,99316.24
2018-08-18T01:53:49.934Z,99314.61
2018-08-18T01:56:20.400Z,99315.28
2018-08-18T01:58:49.845Z,99318.93
2018-08-18T02:01:19.028Z,99315.14
2018-08-18T02:03:48.211Z,99316.02
2018-08-18T02:06:17.466Z,99320.52
2018-08-18T02:08:58.281Z,99313.69
2018-08-18T02:11:27.598Z,99322.88
2018-08-18T02:13:57.215Z,99320.98
2018-08-18T02:16:27.840Z,99323.52
2018-08-18T02:18:56.978Z,99323.02
2018-08-18T02:21:33.247Z,99314.03
2018-08-18T02:24:03.396Z,99324.60
2018-08-18T02:26:33.669Z,99319.97
2018-08-18T02:29:03.044Z,99325.23
2018-08-18T02:31:32.848Z,99325.02
2018-08-18T02:34:01.887Z,99319.25
2018-08-18T02:36:31.176Z,99327.28
2018-08-18T02:39:01.561Z,99328.41
2018-08-18T02:41:32.738Z,99327.95
2018-08-18T02:44:02.111Z,99333.47
2018-08-18T02:46:33.454Z,99329.89
2018-08-18T02:49:03.606Z,99335.73
2018-08-18T02:51:33.100Z,99334.35
2018-08-18T02:54:02.481Z,99331.13
2018-08-18T02:56:36.595Z,99334.45
2018-08-18T02:59:08.216Z,99333.98
2018-08-18T03:01:40.063Z,99340.07
2018-08-18T03:04:11.075Z,99341.20
2018-08-18T03:06:40.470Z,99339.91
2018-08-18T03:09:10.934Z,99348.52
2018-08-18T03:11:42.186Z,99350.80
2018-08-18T03:14:11.960Z,99358.83
2018-08-18T03:16:42.573Z,99360.87
2018-08-18T03:19:15.387Z,99362.91
2018-08-18T03:21:44.604Z,99367.92
2018-08-18T03:24:17.232Z,99367.45
2018-08-18T03:26:50.981Z,99372.72
2018-08-18T03:29:21.066Z,99369.47
2018-08-18T03:31:50.363Z,99374.98
2018-08-18T03:34:19.755Z,99368.18
2018-08-18T03:36:51.406Z,99376.80
2018-08-18T03:39:27.115Z,99379.06
2018-08-18T03:42:02.887Z,99383.29
2018-08-18T03:44:32.085Z,99383.13
2018-08-18T03:47:01.496Z,99387.58
2018-08-18T03:49:30.669Z,99387.89
2018-08-18T03:51:59.915Z,99390.18
2018-08-18T03:54:28.911Z,99392.22
2018-08-18T03:56:58.034Z,99392.22
2018-08-18T03:59:27.051Z,99395.00
2018-08-18T04:01:57.524Z,99403.05
2018-08-18T04:04:30.598Z,99400.86
2018-08-18T04:07:00.438Z,99405.31
2018-08-18T04:16:31.581Z,99413.18
2018-08-18T04:19:03.120Z,99420.89
2018-08-18T04:21:34.165Z,99411.80
2018-08-18T04:24:03.899Z,99412.37
2018-08-18T04:26:39.593Z,99409.86
2018-08-18T04:29:08.528Z,99419.73
2018-08-18T04:31:37.738Z,99432.70
2018-08-18T04:34:07.938Z,99435.46
2018-08-18T04:36:36.991Z,99439.28
2018-08-18T04:39:10.405Z,99439.54
2018-08-18T04:41:39.711Z,99444.66
2018-08-18T04:44:09.066Z,99444.87
2018-08-18T04:46:38.505Z,99446.77
2018-08-18T04:49:07.448Z,99446.67
2018-08-18T04:51:36.679Z,99445.55
2018-08-18T04:54:06.167Z,99446.61
2018-08-18T04:56:35.238Z,99442.39
2018-08-18T04:59:04.389Z,99439.91
2018-08-18T05:01:33.658Z,99448.09
2018-08-18T05:04:06.031Z,99444.94
2018-08-18T05:06:35.876Z,99445.92
2018-08-18T05:09:06.981Z,99458.74
2018-08-18T05:11:36.038Z,99456.14
2018-08-18T05:14:05.123Z,99460.70
2018-08-18T05:16:34.318Z,99464.18
2018-08-18T05:19:03.367Z,99462.70
2018-08-18T05:21:33.205Z,99468.30
2018-08-18T05:24:19.146Z,99465.13
2018-08-18T05:26:48.359Z,99466.92
2018-08-18T05:29:17.520Z,99465.38
2018-08-18T05:31:46.389Z,99460.34
2018-08-18T05:34:15.439Z,99459.11
2018-08-18T05:36:45.054Z,99458.23
2018-08-18T05:39:14.649Z,99460.58
2018-08-18T05:41:43.727Z,99465.69
2018-08-18T05:44:13.074Z,99465.78
2018-08-18T05:46:42.214Z,99475.60
2018-08-18T05:49:15.109Z,99474.63
2018-08-18T05:51:46.211Z,99480.20
2018-08-18T05:54:17.860Z,99481.42
2018-08-18T05:56:47.228Z,99482.64
2018-08-18T05:59:16.230Z,99487.90
2018-08-18T06:01:45.406Z,99484.13
2018-08-18T06:04:15.675Z,99490.05
2018-08-18T06:06:45.769Z,99488.81
2018-08-18T06:09:15.972Z,99494.98
2018-08-18T06:11:45.265Z,99497.33
2018-08-18T06:14:15.695Z,99490.82
2018-08-18T06:16:45.206Z,99490.90
2018-08-18T06:19:14.324Z,99493.23
2018-08-18T06:21:43.430Z,99496.40
2018-08-18T06:24:12.446Z,99501.65
2018-08-18T06:26:41.851Z,99499.25
2018-08-18T06:29:10.902Z,99499.98
2018-08-18T06:32:00.424Z,99499.78
2018-08-18T06:34:33.185Z,99501.80
2018-08-18T06:37:02.389Z,99505.27
2018-08-18T06:39:46.602Z,99504.52
2018-08-18T06:42:26.490Z,99510.41
2018-08-18T06:44:56.493Z,99498.46
2018-08-18T06:47:32.023Z,99503.31
2018-08-18T06:50:01.379Z,99502.32
2018-08-18T06:52:31.399Z,99511.57
2018-08-18T06:55:00.954Z,99507.59
2018-08-18T06:57:40.478Z,99508.55
2018-08-18T07:00:12.759Z,99508.11
2018-08-18T07:02:42.211Z,99515.17
2018-08-18T07:05:13.398Z,99522.80
2018-08-18T07:07:42.741Z,99522.81
2018-08-18T07:10:32.444Z,99530.55
2018-08-18T07:13:04.347Z,99536.52
2018-08-18T07:15:35.949Z,99536.20
2018-08-18T07:18:06.402Z,99529.16
2018-08-18T07:20:35.455Z,99534.02
2018-08-18T07:23:05.104Z,99530.93
2018-08-18T07:25:34.664Z,99530.01
2018-08-18T07:28:08.810Z,99528.30
2018-08-18T07:30:37.787Z,99529.58
2018-08-18T07:33:06.840Z,99535.73
2018-08-18T07:35:35.905Z,99547.62
2018-08-18T07:38:05.777Z,99544.63
2018-08-18T07:40:46.020Z,99548.70
2018-08-18T07:43:18.575Z,99548.02
2018-08-18T07:45:48.288Z,99548.48
2018-08-18T07:48:17.406Z,99554.95
2018-08-18T07:50:46.634Z,99551.03
2018-08-18T07:53:16.086Z,99556.47
2018-08-18T07:55:45.320Z,99556.35
2018-08-18T07:58:16.205Z,99561.00
2018-08-18T08:00:45.662Z,99554.77
2018-08-18T08:03:15.805Z,99557.79
2018-08-18T08:05:44.878Z,99556.65
2018-08-18T08:08:14.225Z,99567.73
2018-08-18T08:10:43.277Z,99569.60
2018-08-18T08:13:13.789Z,99569.60
2018-08-18T08:15:43.077Z,99563.62
2018-08-18T08:18:13.585Z,99561.80
2018-08-18T08:20:43.484Z,99565.73
2018-08-18T08:23:13.125Z,99564.70
2018-08-18T08:25:42.628Z,99566.77
2018-08-18T08:28:11.694Z,99564.00
2018-08-18T08:30:40.687Z,99563.55
2018-08-18T08:33:09.684Z,99567.97
2018-08-18T08:35:38.915Z,99558.60
2018-08-18T08:38:08.060Z,99558.75
2018-08-18T08:40:37.434Z,99553.81
2018-08-18T08:43:06.855Z,99554.88
2018-08-18T08:45:36.427Z,99557.08
2018-08-18T08:48:06.364Z,99559.52
2018-08-18T08:50:35.906Z,99556.05
2018-08-18T08:53:04.989Z,99553.77
2018-08-18T08:55:35.361Z,99560.69
2018-08-18T08:58:04.266Z,99557.01
2018-08-18T09:00:33.473Z,99561.41
2018-08-18T09:03:03.127Z,99557.02
2018-08-18T09:05:32.605Z,99554.60
2018-08-18T09:08:01.633Z,99552.09
2018-08-18T09:10:30.705Z,99550.23
2018-08-18T09:12:59.842Z,99552.18
2018-08-18T09:15:29.292Z,99547.67
2018-08-18T09:17:58.353Z,99547.31
2018-08-18T09:20:28.483Z,99545.36
2018-08-18T09:23:00.245Z,99543.95
2018-08-18T09:25:30.523Z,99543.34
2018-08-18T09:28:01.019Z,99538.38
2018-08-18T09:30:31.521Z,99537.23
2018-08-18T09:33:05.539Z,99539.88
2018-08-18T09:36:06.043Z,99537.98
2018-08-18T09:38:35.411Z,99539.91
2018-08-18T09:41:06.536Z,99538.58
2018-08-18T09:43:36.948Z,99541.69
2018-08-18T09:46:05.933Z,99542.00
2018-08-18T09:48:34.985Z,99539.85
2018-08-18T09:51:04.054Z,99537.49
2018-08-18T09:53:33.084Z,99539.53
2018-08-18T09:56:02.082Z,99538.77
2018-08-18T09:58:31.205Z,99539.17
2018-08-18T10:01:00.324Z,99532.89
2018-08-18T10:03:29.546Z,99533.06
2018-08-18T10:05:58.552Z,99533.01
2018-08-18T10:08:27.650Z,99531.78
2018-08-18T10:10:56.614Z,99533.81
2018-08-18T10:13:25.768Z,99532.73
2018-08-18T10:15:54.723Z,99531.66
2018-08-18T10:18:34.630Z,99534.02
2018-08-18T10:21:04.588Z,99529.63
2018-08-18T10:23:33.778Z,99531.31
2018-08-18T10:26:02.960Z,99531.31
2018-08-18T10:28:32.281Z,99530.73
2018-08-18T10:31:01.504Z,99525.99
2018-08-18T10:33:30.780Z,99529.16
2018-08-18T10:35:59.892Z,99522.38
2018-08-18T10:38:29.313Z,99531.29
2018-08-18T10:40:58.577Z,99532.47
2018-08-18T10:43:27.601Z,99529.59
2018-08-18T10:45:56.974Z,99531.50
2018-08-18T10:48:26.022Z,99537.22
2018-08-18T10:51:21.254Z,99545.94
2018-08-18T10:53:51.105Z,99536.41
2018-08-18T10:56:20.812Z,99542.70
2018-08-18T10:59:07.878Z,99536.98
2018-08-18T11:01:37.241Z,99529.26
2018-08-18T11:04:06.441Z,99532.53
2018-08-18T11:06:35.411Z,99539.66
2018-08-18T11:09:05.774Z,99523.61
2018-08-18T11:11:34.847Z,99529.25
2018-08-18T11:14:04.033Z,99532.27
2018-08-18T11:16:33.023Z,99529.09
2018-08-18T11:19:02.395Z,99526.16
2018-08-18T11:21:34.702Z,99531.86
2018-08-18T11:24:07.334Z,99532.95
2018-08-18T11:26:37.874Z,99525.22
2018-08-18T11:29:15.218Z,99522.64
2018-08-18T11:31:44.490Z,99526.89
2018-08-18T11:34:13.815Z,99521.80
2018-08-18T11:36:57.824Z,99525.56
2018-08-18T11:39:26.846Z,99528.05
2018-08-18T11:41:57.443Z,99520.72
2018-08-18T11:44:26.471Z,99521.36
2018-08-18T11:46:56.073Z,99523.61
2018-08-18T11:49:25.377Z,99517.30
2018-08-18T11:51:55.701Z,99516.67
2018-08-18T11:54:25.255Z,99515.55
2018-08-18T11:56:55.416Z,99519.50
2018-08-18T11:59:24.421Z,99515.03
2018-08-18T12:01:55.247Z,99517.06
2018-08-18T12:04:24.835Z,99516.13
2018-08-18T12:06:59.883Z,99519.18
2018-08-18T12:09:29.163Z,99511.42
2018-08-18T12:11:58.380Z,99507.27
2018-08-18T12:14:27.415Z,99504.15
2018-08-18T12:16:56.408Z,99510.05
2018-08-18T12:19:25.768Z,99509.78
2018-08-18T12:21:55.455Z,99513.62
2018-08-18T12:24:24.492Z,99514.69
2018-08-18T12:27:04.463Z,99502.35
2018-08-18T12:29:33.545Z,99501.02
2018-08-18T12:32:02.687Z,99503.30
2018-08-18T12:34:31.876Z,99498.33
2018-08-18T12:37:01.008Z,99504.58
2018-08-18T12:39:30.253Z,99491.86
2018-08-18T12:41:59.143Z,99485.17
2018-08-18T12:44:32.556Z,99482.03
2018-08-18T12:47:03.832Z,99473.06
2018-08-18T12:49:33.135Z,99476.35
2018-08-18T12:52:02.496Z,99472.01
2018-08-18T12:54:31.580Z,99477.74
2018-08-18T12:57:00.562Z,99469.98
2018-08-18T12:59:29.571Z,99471.02
2018-08-18T13:01:58.599Z,99461.27
2018-08-18T13:04:27.592Z,99464.34
2018-08-18T13:06:56.661Z,99460.19
2018-08-18T13:09:26.756Z,99458.25
2018-08-18T13:11:56.995Z,99456.45
2018-08-18T13:14:30.576Z,99453.08
2018-08-18T13:17:00.156Z,99453.52
2018-08-18T13:19:31.369Z,99446.13
2018-08-18T13:22:00.608Z,99449.52
2018-08-18T13:24:31.268Z,99446.73
2018-08-18T13:27:01.548Z,99443.92
2018-08-18T13:29:31.759Z,99441.29
2018-08-18T13:32:00.914Z,99437.30
2018-08-18T13:34:29.962Z,99437.73
2018-08-18T13:36:59.024Z,99427.89
2018-08-18T13:39:28.143Z,99425.05
2018-08-18T13:41:57.147Z,99421.83
2018-08-18T13:44:31.344Z,99418.60
2018-08-18T13:47:01.324Z,99425.83
2018-08-18T13:49:30.412Z,99422.44
2018-08-18T13:51:59.547Z,99420.25
2018-08-18T13:54:28.524Z,99423.49
2018-08-18T13:56:57.762Z,99423.91
2018-08-18T13:59:39.581Z,99427.14
2018-08-18T14:02:09.446Z,99414.17
2018-08-18T14:04:40.855Z,99420.59
2018-08-18T14:07:10.473Z,99420.60
2018-08-18T14:09:43.223Z,99423.20
2018-08-18T14:12:14.022Z,99424.22
2018-08-18T14:14:42.889Z,99426.02
2018-08-18T14:17:12.600Z,99425.62
2018-08-18T14:19:42.012Z,99424.22
2018-08-18T14:22:11.863Z,99414.39
2018-08-18T14:24:41.793Z,99419.41
2018-08-18T14:27:14.890Z,99411.83
2018-08-18T14:29:44.010Z,99422.06
2018-08-18T14:32:19.027Z,99416.45
2018-08-18T14:35:07.067Z,99426.06
2018-08-18T14:37:38.900Z,99426.66
2018-08-18T14:40:10.244Z,99422.86
2018-08-18T14:42:40.848Z,99417.03
2018-08-18T14:45:12.939Z,99416.23
2018-08-18T14:47:42.408Z,99408.62
2018-08-18T14:50:25.489Z,99408.62
2018-08-18T14:52:54.636Z,99412.02
2018-08-18T14:55:23.999Z,99410.41
2018-08-18T14:58:03.723Z,99403.59
2018-08-18T15:00:33.074Z,99406.40
2018-08-18T15:03:02.070Z,99402.58
2018-08-18T15:05:31.135Z,99399.58
2018-08-18T15:08:00.635Z,99400.17
2018-08-18T15:10:40.083Z,99392.55
2018-08-18T15:13:09.869Z,99399.17
2018-08-18T15:15:38.844Z,99384.10
2018-08-18T15:18:14.685Z,99390.74
2018-08-18T15:20:44.035Z,99389.94
2018-08-18T15:23:13.932Z,99380.72
2018-08-18T15:25:43.865Z,99383.53
2018-08-18T15:28:17.359Z,99378.09
2018-08-18T15:30:50.493Z,99379.91
2018-08-18T15:33:21.274Z,99380.50
2018-08-18T15:35:50.371Z,99373.69
2018-08-18T15:38:51.153Z,99372.47
2018-08-18T15:41:21.032Z,99375.48
2018-08-18T15:43:50.575Z,99375.10
2018-08-18T15:46:21.392Z,99373.48
2018-08-18T15:48:50.336Z,99370.47
2018-08-18T15:51:19.187Z,99369.50
2018-08-18T15:53:52.382Z,99371.09
2018-08-18T15:56:22.157Z,99370.89
2018-08-18T15:58:51.972Z,99366.09
2018-08-18T16:01:25.831Z,99368.72
2018-08-18T16:03:56.211Z,99372.12
2018-08-18T16:06:25.239Z,99374.93
2018-08-18T16:08:54.571Z,99375.92
2018-08-18T16:11:24.160Z,99371.33
2018-08-18T16:13:53.571Z,99367.48
2018-08-18T16:16:23.126Z,99369.09
2018-08-18T16:19:02.865Z,99369.70
2018-08-18T16:21:33.260Z,99370.09
2018-08-18T16:24:02.973Z,99369.70
2018-08-18T16:26:32.199Z,99368.69
2018-08-18T16:29:01.388Z,99366.48
2018-08-18T16:31:30.337Z,99365.88
2018-08-18T16:33:59.920Z,99372.48
2018-08-18T16:36:34.487Z,99365.67
2018-08-18T16:39:03.587Z,99370.27
2018-08-18T16:41:32.846Z,99361.67
2018-08-18T16:44:01.936Z,99362.23
2018-08-18T16:46:31.960Z,99361.00
2018-08-18T16:49:01.463Z,99360.62
2018-08-18T16:51:33.822Z,99364.23
2018-08-18T16:54:34.383Z,99371.23
2018-08-18T16:57:03.432Z,99372.59
2018-08-18T16:59:35.372Z,99377.81
2018-08-18T17:02:04.797Z,99373.00
2018-08-18T17:04:34.921Z,99373.98
2018-08-18T17:07:08.563Z,99376.19
2018-08-18T17:09:41.691Z,99383.19
2018-08-18T17:12:20.968Z,99380.59
2018-08-18T17:14:50.063Z,99387.98
2018-08-18T17:17:19.462Z,99390.19
2018-08-18T17:19:48.427Z,99393.00
2018-08-18T17:22:17.643Z,99395.02
2018-08-18T17:24:46.595Z,99390.65
2018-08-18T17:27:16.295Z,99391.64
2018-08-18T17:29:47.197Z,99392.88
2018-08-18T17:32:16.340Z,99396.91
2018-08-18T17:34:45.350Z,99403.12
2018-08-18T17:37:14.855Z,99400.74
2018-08-18T17:39:44.282Z,99409.16
2018-08-18T17:42:13.411Z,99409.50
2018-08-18T17:44:42.885Z,99416.48
2018-08-18T17:47:12.502Z,99411.22
2018-08-18T17:50:01.954Z,99416.58
2018-08-18T17:52:31.920Z,99423.70
2018-08-18T17:55:12.815Z,99418.01
2018-08-18T17:57:41.810Z,99424.34
2018-08-18T18:00:17.911Z,99421.83
2018-08-18T18:02:53.081Z,99424.77
2018-08-18T18:05:23.359Z,99433.68
2018-08-18T18:07:53.962Z,99428.56
2018-08-18T18:10:25.250Z,99441.27
2018-08-18T18:12:54.645Z,99435.58
2018-08-18T18:15:28.924Z,99439.69
2018-08-18T18:17:58.468Z,99444.97
2018-08-18T18:20:30.174Z,99451.45
2018-08-18T18:22:59.526Z,99455.52
2018-08-18T18:25:28.517Z,99456.39
2018-08-18T18:27:59.729Z,99457.30
2018-08-18T18:30:29.354Z,99457.38
2018-08-18T18:32:58.910Z,99467.08
2018-08-18T18:35:28.186Z,99465.77
2018-08-18T18:37:59.300Z,99469.98
2018-08-18T18:40:28.632Z,99467.86
2018-08-18T18:42:57.605Z,99470.70
2018-08-18T18:45:26.838Z,99466.59
2018-08-18T18:47:56.100Z,99470.45
2018-08-18T18:50:26.046Z,99485.48
2018-08-18T18:52:55.240Z,99482.33
2018-08-18T18:55:24.341Z,99480.83
2018-08-18T18:58:07.090Z,99481.47
2018-08-18T19:00:37.514Z,99483.27
2018-08-18T19:03:08.055Z,99483.74
2018-08-18T19:05:37.182Z,99487.00
2018-08-18T19:08:12.331Z,99491.03
2018-08-18T19:10:41.491Z,99498.23
2018-08-18T19:13:11.011Z,99501.93
2018-08-18T19:15:40.827Z,99501.58
2018-08-18T19:18:10.709Z,99501.86
2018-08-18T19:20:40.036Z,99503.13
2018-08-18T19:23:14.157Z,99506.00
2018-08-18T19:25:44.334Z,99508.63
2018-08-18T19:28:16.540Z,99508.25
2018-08-18T19:30:45.585Z,99506.91
2018-08-18T19:33:15.408Z,99511.76
2018-08-18T19:35:45.900Z,99508.59
2018-08-18T19:38:15.454Z,99512.16
2018-08-18T19:40:46.257Z,99514.22
2018-08-18T19:43:17.741Z,99514.22
2018-08-18T19:45:47.707Z,99518.55
2018-08-18T19:48:21.163Z,99521.76
2018-08-18T19:50:57.159Z,99520.55
2018-08-18T19:53:32.872Z,99519.23
2018-08-18T19:56:02.579Z,99519.41
2018-08-18T19:58:32.000Z,99525.84
2018-08-18T20:01:01.223Z,99521.70
2018-08-18T20:03:30.550Z,99528.72
2018-08-18T20:05:59.995Z,99523.76
2018-08-18T20:08:29.330Z,99525.75
2018-08-18T20:10:59.660Z,99524.19
2018-08-18T20:13:29.919Z,99527.59
2018-08-18T20:16:00.383Z,99525.45
2018-08-18T20:18:30.110Z,99531.02
2018-08-18T20:21:00.315Z,99527.48
2018-08-18T20:23:29.665Z,99533.66
2018-08-18T20:25:58.824Z,99534.83
2018-08-18T20:28:27.993Z,99539.02
2018-08-18T20:30:57.116Z,99539.97
2018-08-18T20:33:26.237Z,99542.21
2018-08-18T20:35:55.274Z,99539.09
2018-08-18T20:38:25.114Z,99537.61
2018-08-18T20:40:54.199Z,99540.86
2018-08-18T20:43:23.131Z,99542.15
2018-08-18T20:45:52.114Z,99539.84
2018-08-18T20:48:22.928Z,99544.95
2018-08-18T20:50:52.450Z,99544.86
2018-08-18T20:53:21.623Z,99551.66
2018-08-18T20:56:00.023Z,99546.38
2018-08-18T20:58:29.838Z,99549.36
2018-08-18T21:00:59.291Z,99546.47
2018-08-18T21:03:46.369Z,99547.75
2018-08-18T21:06:16.704Z,99557.50
2018-08-18T21:08:45.733Z,99554.95
2018-08-18T21:11:15.637Z,99562.12
2018-08-18T21:13:47.867Z,99565.02
2018-08-18T21:16:17.777Z,99565.36
2018-08-18T21:18:46.915Z,99568.27
2018-08-18T21:21:34.793Z,99569.54
2018-08-18T21:24:04.235Z,99578.33
2018-08-18T21:26:33.560Z,99586.55
2018-08-18T21:29:02.879Z,99584.35
2018-08-18T21:31:36.834Z,99579.15
2018-08-18T21:34:07.265Z,99584.06
2018-08-18T21:36:36.995Z,99579.22
2018-08-18T21:39:09.027Z,99575.84
2018-08-18T21:41:40.631Z,99575.52
2018-08-18T21:44:11.530Z,99577.81
2018-08-18T21:46:41.008Z,99574.02
2018-08-18T21:49:10.803Z,99579.89
2018-08-18T21:51:40.011Z,99580.23
2018-08-18T21:54:09.066Z,99577.00
2018-08-18T21:56:40.314Z,99581.98
2018-08-18T21:59:11.150Z,99582.30
2018-08-18T22:01:40.517Z,99584.84
2018-08-18T22:04:10.106Z,99587.61
2018-08-18T22:06:39.477Z,99585.20
2018-08-18T22:09:22.784Z,99586.83
2018-08-18T22:11:51.962Z,99579.08
2018-08-18T22:14:20.993Z,99578.84
2018-08-18T22:16:57.938Z,99586.02
2018-08-18T22:19:27.904Z,99583.81
2018-08-18T22:21:56.994Z,99583.00
2018-08-18T22:24:26.093Z,99580.80
2018-08-18T22:26:55.322Z,99575.02
2018-08-18T22:29:25.651Z,99573.63
2018-08-18T22:31:55.023Z,99574.80
2018-08-18T22:34:24.047Z,99569.02
2018-08-18T22:37:00.891Z,99571.30
2018-08-18T22:39:29.874Z,99566.81
2018-08-18T22:41:58.951Z,99570.25
2018-08-18T22:44:27.975Z,99569.56
2018-08-18T22:46:57.166Z,99568.05
2018-08-18T22:49:26.709Z,99568.73
2018-08-18T22:51:55.815Z,99563.07
2018-08-18T22:54:25.203Z,99567.34
2018-08-18T22:56:59.558Z,99562.22
2018-08-18T22:59:28.838Z,99566.83
2018-08-18T23:01:58.146Z,99565.53
2018-08-18T23:04:33.998Z,99567.03
2018-08-18T23:07:04.199Z,99574.41
2018-08-18T23:09:33.330Z,99575.22
2018-08-18T23:12:06.302Z,99575.17
2018-08-18T23:14:39.406Z,99583.22
2018-08-18T23:17:10.757Z,99585.62
2018-08-18T23:19:39.819Z,99594.38
2018-08-18T23:22:18.439Z,99593.78
2018-08-18T23:24:47.741Z,99585.91
2018-08-18T23:27:16.858Z,99584.64
2018-08-18T23:29:46.006Z,99581.81
2018-08-18T23:32:22.100Z,99590.31
2018-08-18T23:34:53.578Z,99584.48
2018-08-18T23:37:22.731Z,99578.91
2018-08-18T23:39:55.381Z,99580.73
2018-08-18T23:42:25.776Z,99581.03
2018-08-18T23:44:54.838Z,99578.69
2018-08-18T23:47:24.242Z,99583.28
2018-08-18T23:49:53.406Z,99574.37
2018-08-18T23:52:23.332Z,99577.81
2018-08-18T23:54:52.310Z,99576.86
2018-08-18T23:57:21.844Z,99576.72
2018-08-18T23:59:51.288Z,99573.00
